Quilcene, Washington
Current Conditions -  °F | °C
As of 8:35 PM on Wednesday 26 Nov 2014 (Local Time) from KPWT Reporting Station
Broken Clouds Broken Clouds  
Wind Chill: 54°   Ceiling: 3300
Heat Index: 54°   Visibility: 10mi
Dew Point: 52°   Wind: 14mph
Humidity: 94%   Direction: 200°SSW
Pressure: 29.91"   Gusts: NA
Location:  47.82°N, 122.88°W
Report Text: KPWT 270435Z AUTO 20012KT 10SM SCT004 BKN033 BKN070 12/11 A2991 RMK AO1 P0001
Loading
Personal Weather Stations






























Interactive Weather Map New forecast layout! Learn more

10-Day Weather Forecast

Advertisements
Track Severe Weather on mobile